Rola Do Mar — CSKS — position and weather

sailwx.info

Track history (hours):
 
Tides and Currents Weather Stations Pressure Air Temp Water Temp Dewpoint Dewpoint Depression Visibility Wind Speed Wind Dir Waves Ship Positions

Rola Do Mar

Last reported at 2017-Sep-22 02:00 UTC. Time now 2017-Sep-22 04:40 UTC.
Position N 38°31' W 008°53'.

Length 70 m; draft 2.7 m.

Type: Passenger vessel. MMSI: 263701890.

Date/timePositionNaut miles runAvg speedWind from/ knotsBaromVisibWave heightAir tempDewpointWater temp
2017-Sep-22 02:00N 38°31' W 008°53'0 0.0
2017-Sep-21 22:48N 38°31' W 008°53'0 0.0
2017-Sep-21 21:48N 38°31' W 008°53'0 0.0
2017-Sep-21 21:30N 38°31' W 008°53'3 6.4
2017-Sep-21 20:59N 38°28' W 008°52'3 5.0
2017-Sep-21 20:18N 38°31' W 008°53'3 9.9
2017-Sep-21 19:59N 38°28' W 008°52'3 5.3
2017-Sep-21 19:30N 38°31' W 008°53'0 0.7
2017-Sep-21 19:00N 38°30' W 008°53'2 4.2
2017-Sep-21 18:30N 38°29' W 008°52'3 5.4
2017-Sep-21 17:58N 38°31' W 008°53'3 7.3
2017-Sep-21 17:30N 38°28' W 008°52'3 6.2
2017-Sep-21 16:58N 38°31' W 008°53'3 6.8
2017-Sep-21 16:30N 38°28' W 008°52'2 3.7
2017-Sep-21 16:01N 38°30' W 008°53'0 0.7
2017-Sep-21 15:30N 38°30' W 008°53'2 4.3
2017-Sep-21 15:01N 38°28' W 008°52'3 6.3
2017-Sep-21 14:31N 38°31' W 008°53'3 6.7
2017-Sep-21 14:00N 38°28' W 008°52'3 4.8
2017-Sep-21 13:19N 38°31' W 008°53'3 8.8
2017-Sep-21 13:00N 38°29' W 008°52'2 3.2
2017-Sep-21 12:30N 38°30' W 008°53'0 0.4
2017-Sep-21 12:01N 38°30' W 008°53'1 2.9
2017-Sep-21 11:30N 38°29' W 008°52'3 5.2
2017-Sep-21 10:58N 38°31' W 008°53'3 7.1
2017-Sep-21 10:30N 38°28' W 008°52'3 4.8
2017-Sep-21 09:48N 38°31' W 008°53'3 9.8
2017-Sep-21 09:30N 38°28' W 008°52'2 3.7
2017-Sep-21 09:00N 38°30' W 008°53'0 0.7
2017-Sep-21 08:29N 38°30' W 008°53'2 4.3
2017-Sep-21 08:00N 38°28' W 008°52'3 5.4
2017-Sep-21 07:27N 38°31' W 008°53'3 7.5
2017-Sep-21 07:00N 38°28' W 008°52'3 1.3
2017-Sep-21 04:28N 38°31' W 008°53'0 0.0
2017-Sep-21 04:00N 38°31' W 008°53'0 0.0
2017-Sep-21 03:28N 38°31' W 008°53'0 0.0
2017-Sep-21 03:00N 38°31' W 008°53'0 0.0
2017-Sep-21 02:30N 38°31' W 008°53'0 0.0
2017-Sep-21 02:01N 38°31' W 008°53'0 0.0
2017-Sep-21 01:30N 38°31' W 008°53'0 0.0
2017-Sep-21 01:00N 38°31' W 008°53'0 0.0
2017-Sep-21 00:30N 38°31' W 008°53'0 0.0
2017-Sep-21 00:00N 38°31' W 008°53'0 0.0
2017-Sep-20 23:29N 38°31' W 008°53'0 0.0
2017-Sep-20 23:01N 38°31' W 008°53'0 0.0
2017-Sep-20 22:31N 38°31' W 008°53'1 1.3
2017-Sep-20 22:00N 38°31' W 008°53'3 5.3
2017-Sep-20 21:29N 38°28' W 008°52'3 6.7
2017-Sep-20 20:59N 38°31' W 008°53'3 6.2
2017-Sep-20 20:27N 38°28' W 008°52'3 6.8
2017-Sep-20 20:01N 38°31' W 008°53'1 2.9
2017-Sep-20 19:30N 38°29' W 008°53'0 0.5
2017-Sep-20 19:00N 38°29' W 008°53'2 4.0
2017-Sep-20 18:30N 38°31' W 008°53'3 6.5
2017-Sep-20 18:00N 38°28' W 008°52'3 5.6
2017-Sep-20 17:24N 38°31' W 008°53'3 8.0
2017-Sep-20 16:59N 38°28' W 008°52'3 5.9
2017-Sep-20 16:30N 38°31' W 008°53'1 1.6
2017-Sep-20 16:00N 38°30' W 008°53'1 2.1
2017-Sep-20 15:30N 38°29' W 008°52'2 4.5
2017-Sep-20 15:00N 38°31' W 008°53'0 0.1
2017-Sep-20 13:55N 38°31' W 008°53'3 7.7
2017-Sep-20 13:29N 38°28' W 008°52'3 6.9
2017-Sep-20 13:00N 38°31' W 008°53'2 4.2
2017-Sep-20 12:30N 38°29' W 008°52'0 0.5
2017-Sep-20 12:00N 38°29' W 008°52'2 4.1
2017-Sep-20 11:31N 38°31' W 008°53'3 5.6
2017-Sep-20 10:58N 38°28' W 008°52'3 7.2
2017-Sep-20 10:30N 38°31' W 008°53'3 5.5
2017-Sep-20 09:53N 38°28' W 008°52'3 7.6
2017-Sep-20 09:29N 38°31' W 008°53'1 3.1
2017-Sep-20 09:01N 38°29' W 008°53'0 0.6
2017-Sep-20 08:30N 38°29' W 008°53'2 1.4
2017-Sep-20 06:56N 38°31' W 008°53'0 0.0
2017-Sep-20 06:26N 38°31' W 008°53'0 0.0
2017-Sep-20 05:56N 38°31' W 008°53'0 0.0
2017-Sep-20 03:44N 38°31' W 008°53'0 0.0
2017-Sep-20 00:08N 38°31' W 008°53'0 0.0
2017-Sep-19 21:59N 38°31' W 008°53'0 0.2
2017-Sep-19 21:25N 38°31' W 008°53'3 7.5
2017-Sep-19 20:59N 38°28' W 008°52'3 6.8
2017-Sep-19 20:29N 38°31' W 008°53'3 6.5
2017-Sep-19 20:00N 38°28' W 008°52'2 4.5
2017-Sep-19 19:30N 38°30' W 008°53'0 0.5
2017-Sep-19 19:00N 38°30' W 008°53'1 2.1
2017-Sep-19 18:30N 38°29' W 008°53'2 4.4
2017-Sep-19 18:00N 38°31' W 008°53'3 6.1
2017-Sep-19 17:27N 38°28' W 008°52'3 5.8
2017-Sep-19 16:53N 38°31' W 008°53'3 8.0
2017-Sep-19 16:31N 38°28' W 008°52'2 4.1
2017-Sep-19 15:59N 38°30' W 008°53'0 0.3
2017-Sep-19 15:30N 38°30' W 008°53'2 3.1
2017-Sep-19 15:00N 38°29' W 008°52'3 4.9
2017-Sep-19 14:29N 38°31' W 008°53'3 7.0
2017-Sep-19 14:00N 38°28' W 008°52'3 6.3
2017-Sep-19 13:28N 38°31' W 008°53'3 6.1
2017-Sep-19 13:00N 38°29' W 008°52'3 3.3
2017-Sep-19 12:09N 38°31' W 008°53'2 8.6
2017-Sep-19 11:55N 38°29' W 008°52'1 2.1
2017-Sep-19 11:31N 38°28' W 008°52'3 5.5
2017-Sep-19 10:58N 38°31' W 008°53'3 7.1
2017-Sep-19 10:30N 38°28' W 008°52'3 4.9
2017-Sep-19 09:49N 38°31' W 008°53'3 8.8
2017-Sep-19 09:30N 38°29' W 008°52'2 3.6
2017-Sep-19 09:00N 38°30' W 008°53'0 0.3
2017-Sep-19 08:29N 38°30' W 008°53'2 4.1
2017-Sep-19 08:00N 38°28' W 008°52'3 5.6
2017-Sep-19 07:28N 38°31' W 008°53'3 7.2
2017-Sep-19 06:59N 38°28' W 008°52'3 0.4
2017-Sep-18 22:06N 38°31' W 008°53'1 6.4
2017-Sep-18 22:00N 38°31' W 008°53'3 5.8
2017-Sep-18 21:30N 38°28' W 008°52'3 6.4
2017-Sep-18 20:59N 38°31' W 008°53'3 7.0
2017-Sep-18 20:30N 38°28' W 008°52'3 5.8
2017-Sep-18 19:55N 38°31' W 008°53'2 5.3
2017-Sep-18 19:30N 38°29' W 008°53'0 0.7
2017-Sep-18 19:00N 38°29' W 008°53'2 3.6
2017-Sep-18 18:30N 38°31' W 008°53'3 6.0
2017-Sep-18 18:00N 38°28' W 008°52'3 6.5
2017-Sep-18 17:30N 38°31' W 008°53'3 6.7
2017-Sep-18 17:00N 38°28' W 008°52'3 6.7
2017-Sep-18 16:30N 38°31' W 008°53'2 3.2
2017-Sep-18 16:00N 38°30' W 008°53'0 0.7
2017-Sep-18 15:30N 38°29' W 008°53'2 3.6
2017-Sep-18 15:00N 38°31' W 008°53'3 6.1
2017-Sep-18 14:30N 38°28' W 008°52'3 6.4
2017-Sep-18 14:00N 38°31' W 008°53'3 6.7
2017-Sep-18 13:30N 38°28' W 008°52'3 4.4
2017-Sep-18 12:44N 38°31' W 008°53'2 9.3
2017-Sep-18 12:28N 38°29' W 008°52'1 1.2
2017-Sep-18 11:59N 38°29' W 008°53'1 2.4
2017-Sep-18 11:29N 38°30' W 008°53'3 5.0
2017-Sep-18 10:58N 38°28' W 008°52'3 6.0
2017-Sep-18 10:25N 38°31' W 008°53'3 7.9
2017-Sep-18 09:59N 38°28' W 008°52'3 6.4
2017-Sep-18 09:30N 38°31' W 008°53'2 3.1
2017-Sep-18 09:00N 38°29' W 008°53'1 1.3
2017-Sep-18 08:30N 38°30' W 008°53'2 0.8
2017-Sep-18 06:37N 38°31' W 008°53'0 0.0
2017-Sep-18 05:43N 38°31' W 008°53'0 0.0
2017-Sep-18 05:19N 38°31' W 008°53'0 0.0
2017-Sep-18 03:19N 38°31' W 008°53'0 0.0
2017-Sep-18 02:55N 38°31' W 008°53'0 0.0
2017-Sep-18 02:25N 38°31' W 008°53'0 0.0
2017-Sep-18 01:55N 38°31' W 008°53'0 0.0
2017-Sep-18 01:19N 38°31' W 008°53'0 0.0
2017-Sep-18 00:55N 38°31' W 008°53'0 0.0
2017-Sep-18 00:25N 38°31' W 008°53'0 0.0
2017-Sep-17 23:55N 38°31' W 008°53'0 0.0
2017-Sep-17 23:25N 38°31' W 008°53'0 0.0
2017-Sep-17 22:43N 38°31' W 008°53'0 0.0
2017-Sep-17 22:19N 38°31' W 008°53'0 0.0
2017-Sep-17 21:55N 38°31' W 008°53'0 0.0
2017-Sep-17 21:30N 38°31' W 008°53'3 6.9
2017-Sep-17 21:00N 38°28' W 008°52'3 6.5
2017-Sep-17 20:29N 38°31' W 008°53'3 6.3
2017-Sep-17 20:00N 38°28' W 008°52'2 4.8
2017-Sep-17 19:30N 38°30' W 008°54'1 1.6
2017-Sep-17 19:00N 38°30' W 008°53'1 2.0
2017-Sep-17 18:30N 38°29' W 008°52'2 4.9
2017-Sep-17 18:00N 38°31' W 008°53'3 6.5
2017-Sep-17 17:30N 38°28' W 008°52'3 6.8
2017-Sep-17 17:00N 38°31' W 008°53'3 5.8
2017-Sep-17 16:30N 38°28' W 008°52'2 3.1
2017-Sep-17 16:00N 38°30' W 008°53'0 0.4
2017-Sep-17 15:29N 38°30' W 008°53'1 2.8
2017-Sep-17 15:00N 38°29' W 008°52'3 5.0
2017-Sep-17 14:30N 38°31' W 008°53'3 6.6
2017-Sep-17 14:00N 38°28' W 008°52'3 6.9
2017-Sep-17 13:30N 38°31' W 008°53'3 5.1
2017-Sep-17 13:00N 38°29' W 008°52'2 3.4
2017-Sep-17 12:30N 38°30' W 008°53'0 0.7
2017-Sep-17 12:00N 38°30' W 008°53'2 3.9
2017-Sep-17 11:30N 38°28' W 008°52'3 6.3
2017-Sep-17 11:00N 38°31' W 008°53'3 6.4
2017-Sep-17 10:29N 38°28' W 008°52'3 6.8
2017-Sep-17 09:59N 38°31' W 008°53'3 5.9
2017-Sep-17 09:30N 38°29' W 008°52'2 3.3
2017-Sep-17 09:00N 38°30' W 008°53'0 0.2
2017-Sep-17 08:30N 38°30' W 008°53'2 3.6
2017-Sep-17 07:58N 38°28' W 008°52'3 6.5
2017-Sep-17 07:29N 38°31' W 008°53'3 6.8
2017-Sep-17 07:00N 38°28' W 008°52'3 6.8
2017-Sep-17 06:30N 38°31' W 008°53'0 0.0
2017-Sep-17 03:10N 38°31' W 008°53'0 0.0
2017-Sep-16 23:15N 38°31' W 008°53'2 8.6
2017-Sep-16 22:59N 38°29' W 008°52'1 1.8
2017-Sep-16 22:30N 38°30' W 008°53'0 0.7
2017-Sep-16 22:00N 38°30' W 008°53'2 4.6
2017-Sep-16 21:30N 38°28' W 008°52'3 6.1
2017-Sep-16 20:57N 38°31' W 008°53'3 7.4
2017-Sep-16 20:30N 38°28' W 008°52'3 6.5
2017-Sep-16 20:00N 38°31' W 008°53'2 4.0
2017-Sep-16 19:30N 38°29' W 008°53'1 1.1
2017-Sep-16 19:00N 38°29' W 008°53'1 2.2
2017-Sep-16 18:30N 38°31' W 008°53'3 5.5
2017-Sep-16 18:00N 38°28' W 008°52'3 6.8
2017-Sep-16 17:30N 38°31' W 008°53'3 6.6
2017-Sep-16 17:00N 38°28' W 008°52'3 6.1
2017-Sep-16 16:30N 38°31' W 008°53'1 3.0
2017-Sep-16 16:00N 38°29' W 008°53'0 0.5
2017-Sep-16 15:30N 38°29' W 008°53'2 4.1
2017-Sep-16 15:00N 38°31' W 008°53'3 6.5
2017-Sep-16 14:30N 38°28' W 008°52'3 6.7
2017-Sep-16 14:00N 38°31' W 008°53'3 6.6
2017-Sep-16 13:30N 38°28' W 008°52'3 6.1
2017-Sep-16 13:00N 38°31' W 008°53'2 4.0
2017-Sep-16 12:30N 38°29' W 008°52'1 1.9
2017-Sep-16 12:00N 38°29' W 008°53'2 3.2
2017-Sep-16 11:31N 38°31' W 008°53'3 5.8
2017-Sep-16 10:58N 38°28' W 008°52'3 6.0
2017-Sep-16 10:24N 38°31' W 008°53'3 8.3
2017-Sep-16 10:00N 38°28' W 008°52'3 6.3
2017-Sep-16 09:30N 38°31' W 008°53'2 4.3
2017-Sep-16 09:00N 38°29' W 008°52'1 1.0
2017-Sep-16 08:30N 38°29' W 008°53'2 2.4
2017-Sep-16 07:37N 38°31' W 008°53'0 0.0
2017-Sep-16 07:19N 38°31' W 008°53'0 0.0
2017-Sep-16 06:55N 38°31' W 008°53'0 0.0
2017-Sep-16 06:25N 38°31' W 008°53'0 0.0
2017-Sep-16 05:55N 38°31' W 008°53'0 0.0
2017-Sep-16 05:25N 38°31' W 008°53'0 0.0
2017-Sep-16 04:49N 38°31' W 008°53'0 0.0
2017-Sep-16 04:19N 38°31' W 008°53'0 0.0
2017-Sep-16 03:37N 38°31' W 008°53'0 0.0
2017-Sep-16 03:25N 38°31' W 008°53'0 0.0
2017-Sep-16 02:55N 38°31' W 008°53'0 0.0
2017-Sep-16 02:19N 38°31' W 008°53'0 0.0
2017-Sep-16 01:55N 38°31' W 008°53'0 0.0
2017-Sep-16 01:07N 38°31' W 008°53'0 0.0
2017-Sep-16 00:37N 38°31' W 008°53'0 0.0
2017-Sep-16 00:07N 38°31' W 008°53'0 0.0
2017-Sep-15 23:43N 38°31' W 008°53'0 0.0
2017-Sep-15 21:38N 38°31' W 008°53'0 2.4
2017-Sep-15 21:30N 38°31' W 008°53'3 6.2
2017-Sep-15 21:00N 38°28' W 008°52'3 5.6
2017-Sep-15 20:25N 38°31' W 008°53'3 7.4
2017-Sep-15 20:00N 38°28' W 008°52'2 4.6
2017-Sep-15 19:30N 38°30' W 008°53'1 1.5
2017-Sep-15 19:00N 38°30' W 008°53'1 1.7
2017-Sep-15 18:30N 38°29' W 008°52'2 4.8
2017-Sep-15 18:00N 38°31' W 008°53'3 6.2
2017-Sep-15 17:28N 38°28' W 008°52'3 6.0
2017-Sep-15 16:55N 38°31' W 008°53'3 7.2
2017-Sep-15 16:30N 38°28' W 008°52'2 4.4
2017-Sep-15 16:00N 38°30' W 008°53'0 0.8
2017-Sep-15 15:30N 38°30' W 008°53'2 3.7
2017-Sep-15 15:00N 38°28' W 008°52'3 5.8
2017-Sep-15 14:30N 38°31' W 008°53'3 6.7
2017-Sep-15 14:00N 38°28' W 008°52'3 6.3
2017-Sep-15 13:30N 38°31' W 008°53'2 4.4
2017-Sep-15 13:00N 38°29' W 008°52'1 1.9
2017-Sep-15 12:30N 38°30' W 008°53'1 1.7
2017-Sep-15 12:00N 38°30' W 008°53'2 4.4
2017-Sep-15 11:30N 38°28' W 008°52'3 5.9
2017-Sep-15 11:00N 38°31' W 008°53'3 6.9
2017-Sep-15 10:30N 38°28' W 008°52'3 4.9
2017-Sep-15 09:49N 38°31' W 008°53'3 8.6
2017-Sep-15 09:30N 38°29' W 008°52'1 2.7
2017-Sep-15 09:00N 38°30' W 008°53'0 0.6
2017-Sep-15 08:30N 38°30' W 008°53'2 3.9
2017-Sep-15 07:59N 38°28' W 008°52'3 6.2
2017-Sep-15 07:29N 38°31' W 008°53'3 6.6
2017-Sep-15 06:59N 38°28' W 008°52'3 0.4
2017-Sep-14 23:11N 38°31' W 008°53'210.6
2017-Sep-14 23:00N 38°29' W 008°53'0 0.3
2017-Sep-14 22:30N 38°29' W 008°53'1 1.6
2017-Sep-14 21:59N 38°30' W 008°53'2 4.7
2017-Sep-14 21:30N 38°28' W 008°52'3 6.2
2017-Sep-14 20:58N 38°31' W 008°53'3 7.3
2017-Sep-14 20:30N 38°28' W 008°52'3 6.3
2017-Sep-14 20:00N 38°31' W 008°53'2 4.3
2017-Sep-14 19:30N 38°29' W 008°52'1 1.1
2017-Sep-14 19:00N 38°29' W 008°53'1 2.6
2017-Sep-14 18:30N 38°31' W 008°53'3 5.4
2017-Sep-14 18:00N 38°28' W 008°52'3 6.9
2017-Sep-14 17:30N 38°31' W 008°53'3 6.7
2017-Sep-14 17:00N 38°28' W 008°52'3 6.7
2017-Sep-14 16:30N 38°31' W 008°53'2 3.4
2017-Sep-14 16:00N 38°30' W 008°53'1 1.4
2017-Sep-14 15:30N 38°29' W 008°52'2 4.9
2017-Sep-14 15:00N 38°31' W 008°53'3 5.9
2017-Sep-14 14:27N 38°28' W 008°52'3 7.0
2017-Sep-14 13:58N 38°31' W 008°53'3 6.7
2017-Sep-14 13:28N 38°28' W 008°52'3 6.8
2017-Sep-14 12:59N 38°31' W 008°53'3 5.5
2017-Sep-14 12:24N 38°28' W 008°52'2 3.9
2017-Sep-14 12:00N 38°29' W 008°53'2 3.6
2017-Sep-14 11:30N 38°31' W 008°53'3 6.3
2017-Sep-14 11:00N 38°28' W 008°52'3 5.2
2017-Sep-14 10:22N 38°31' W 008°53'3 9.0
2017-Sep-14 10:00N 38°28' W 008°52'3 5.9
2017-Sep-14 09:30N 38°31' W 008°53'2 3.0
2017-Sep-14 09:00N 38°29' W 008°53'0 0.6
2017-Sep-14 08:30N 38°30' W 008°53'2 2.7
2017-Sep-14 07:52N 38°31' W 008°53'0 0.0
2017-Sep-14 03:07N 38°31' W 008°53'0 0.1
2017-Sep-14 02:49N 38°31' W 008°53'0 0.0
2017-Sep-14 02:25N 38°31' W 008°53'0 0.0
2017-Sep-14 01:55N 38°31' W 008°53'0 0.0
2017-Sep-14 01:07N 38°31' W 008°53'0 0.0
2017-Sep-14 00:55N 38°31' W 008°53'0 0.0
2017-Sep-14 00:19N 38°31' W 008°53'0 0.0
2017-Sep-13 23:55N 38°31' W 008°53'0 0.0
2017-Sep-13 23:25N 38°31' W 008°53'0 0.0
2017-Sep-13 22:58N 38°31' W 008°53'0 0.0
2017-Sep-13 22:01N 38°31' W 008°53'0 0.0
2017-Sep-13 21:49N 38°31' W 008°53'0 0.1
2017-Sep-13 21:27N 38°31' W 008°53'3 7.1
2017-Sep-13 20:59N 38°28' W 008°52'3 6.7
2017-Sep-13 20:29N 38°31' W 008°53'3 5.9
2017-Sep-13 20:00N 38°29' W 008°52'2 4.0
2017-Sep-13 19:30N 38°30' W 008°53'1 1.3
2017-Sep-13 19:00N 38°30' W 008°53'2 3.6
2017-Sep-13 18:30N 38°28' W 008°52'3 6.5
2017-Sep-13 18:00N 38°31' W 008°53'3 6.7
2017-Sep-13 17:30N 38°28' W 008°52'3 6.8
2017-Sep-13 17:00N 38°31' W 008°53'3 5.3
2017-Sep-13 16:30N 38°29' W 008°52'2 3.3
2017-Sep-13 15:59N 38°30' W 008°53'0 0.3
2017-Sep-13 15:30N 38°30' W 008°53'2 4.5
2017-Sep-13 15:00N 38°28' W 008°52'3 6.3
2017-Sep-13 14:30N 38°31' W 008°53'3 6.7
2017-Sep-13 14:00N 38°28' W 008°52'3 6.7
2017-Sep-13 13:30N 38°31' W 008°53'3 5.5
2017-Sep-13 13:00N 38°29' W 008°52'1 2.8
2017-Sep-13 12:30N 38°30' W 008°53'1 1.4
2017-Sep-13 12:00N 38°30' W 008°53'2 4.8
2017-Sep-13 11:30N 38°28' W 008°52'3 5.4
2017-Sep-13 10:56N 38°31' W 008°53'3 7.8
2017-Sep-13 10:30N 38°28' W 008°52'3 6.6
2017-Sep-13 10:00N 38°31' W 008°53'3 5.6
2017-Sep-13 09:30N 38°29' W 008°52'1 2.9
2017-Sep-13 09:00N 38°30' W 008°53'1 1.2
2017-Sep-13 08:30N 38°30' W 008°53'2 2.9
2017-Sep-13 07:56N 38°29' W 008°52'2 5.1
2017-Sep-13 07:28N 38°31' W 008°53'3 6.9
2017-Sep-13 06:59N 38°28' W 008°52'3 7.1
2017-Sep-13 06:30N 38°31' W 008°53'0 0.0
2017-Sep-13 01:46N 38°31' W 008°53'0 0.0
2017-Sep-13 01:19N 38°31' W 008°53'0 0.0
2017-Sep-12 23:17N 38°31' W 008°53'2 8.0
2017-Sep-12 23:00N 38°29' W 008°52'1 1.4
2017-Sep-12 22:30N 38°29' W 008°53'2 3.5
2017-Sep-12 22:00N 38°31' W 008°53'3 6.3
2017-Sep-12 21:29N 38°28' W 008°52'3 6.4
2017-Sep-12 20:59N 38°31' W 008°53'3 7.2
2017-Sep-12 20:30N 38°28' W 008°52'3 6.7
2017-Sep-12 20:00N 38°31' W 008°53'3 5.2
2017-Sep-12 19:31N 38°29' W 008°52'0 0.4
2017-Sep-12 19:00N 38°29' W 008°52'2 4.9
2017-Sep-12 18:30N 38°31' W 008°53'3 6.1
2017-Sep-12 18:01N 38°28' W 008°52'3 6.7
2017-Sep-12 17:30N 38°31' W 008°53'3 6.7
2017-Sep-12 17:00N 38°28' W 008°52'3 6.7
2017-Sep-12 16:30N 38°31' W 008°53'2 3.9
2017-Sep-12 16:00N 38°29' W 008°53'0 0.9
2017-Sep-12 15:30N 38°29' W 008°52'2 3.8
2017-Sep-12 15:00N 38°31' W 008°53'3 5.4
2017-Sep-12 14:29N 38°28' W 008°52'3 7.0
2017-Sep-12 14:00N 38°31' W 008°53'3 6.5
2017-Sep-12 13:29N 38°28' W 008°52'3 5.8
2017-Sep-12 13:00N 38°31' W 008°53'1 2.1
2017-Sep-12 12:30N 38°30' W 008°53'0 0.8
2017-Sep-12 12:00N 38°29' W 008°53'2 3.3
2017-Sep-12 11:30N 38°31' W 008°53'3 5.3
2017-Sep-12 10:58N 38°28' W 008°52'3 5.3
2017-Sep-12 10:22N 38°31' W 008°53'3 9.2
2017-Sep-12 10:00N 38°28' W 008°52'3 6.0
2017-Sep-12 09:28N 38°31' W 008°53'2 3.6
2017-Sep-12 09:00N 38°30' W 008°53'0 0.2
2017-Sep-12 08:30N 38°29' W 008°53'2 3.6
2017-Sep-12 07:59N 38°31' W 008°53'0 0.0
2017-Sep-12 07:25N 38°31' W 008°53'0 0.0
2017-Sep-12 06:55N 38°31' W 008°53'0 0.0
2017-Sep-12 06:19N 38°31' W 008°53'0 0.0
2017-Sep-12 05:55N 38°31' W 008°53'0 0.0
2017-Sep-12 05:01N 38°31' W 008°53'0 0.0
2017-Sep-12 04:43N 38°31' W 008°53'0 0.0
2017-Sep-12 04:25N 38°31' W 008°53'0 0.0
2017-Sep-12 03:58N 38°31' W 008°53'0 0.0
2017-Sep-12 03:28N 38°31' W 008°53'0 0.0
2017-Sep-12 02:58N 38°31' W 008°53'0 0.0
2017-Sep-12 02:16N 38°31' W 008°53'  
Track history (hours):
 
Tides and Currents Weather Stations Pressure Air Temp Water Temp Dewpoint Dewpoint Depression Visibility Wind Speed Wind Dir Waves Ship Positions

Rola Do Mar

Last reported at 2017-Sep-22 02:00 UTC. Time now 2017-Sep-22 04:40 UTC.
Position N 38°31' W 008°53'.

Length 70 m; draft 2.7 m.

Type: Passenger vessel. MMSI: 263701890.

Date/timePositionNaut miles runAvg speedWind from/ knotsBaromVisibWave heightAir tempDewpointWater temp
2017-Sep-22 02:00N 38°31' W 008°53'0 0.0
2017-Sep-21 22:48N 38°31' W 008°53'0 0.0
2017-Sep-21 21:48N 38°31' W 008°53'0 0.0
2017-Sep-21 21:30N 38°31' W 008°53'3 6.4
2017-Sep-21 20:59N 38°28' W 008°52'3 5.0
2017-Sep-21 20:18N 38°31' W 008°53'3 9.9
2017-Sep-21 19:59N 38°28' W 008°52'3 5.3
2017-Sep-21 19:30N 38°31' W 008°53'0 0.7
2017-Sep-21 19:00N 38°30' W 008°53'2 4.2
2017-Sep-21 18:30N 38°29' W 008°52'3 5.4
2017-Sep-21 17:58N 38°31' W 008°53'3 7.3
2017-Sep-21 17:30N 38°28' W 008°52'3 6.2
2017-Sep-21 16:58N 38°31' W 008°53'3 6.8
2017-Sep-21 16:30N 38°28' W 008°52'2 3.7
2017-Sep-21 16:01N 38°30' W 008°53'0 0.7
2017-Sep-21 15:30N 38°30' W 008°53'2 4.3
2017-Sep-21 15:01N 38°28' W 008°52'3 6.3
2017-Sep-21 14:31N 38°31' W 008°53'3 6.7
2017-Sep-21 14:00N 38°28' W 008°52'3 4.8
2017-Sep-21 13:19N 38°31' W 008°53'3 8.8
2017-Sep-21 13:00N 38°29' W 008°52'2 3.2
2017-Sep-21 12:30N 38°30' W 008°53'0 0.4
2017-Sep-21 12:01N 38°30' W 008°53'1 2.9
2017-Sep-21 11:30N 38°29' W 008°52'3 5.2
2017-Sep-21 10:58N 38°31' W 008°53'3 7.1
2017-Sep-21 10:30N 38°28' W 008°52'3 4.8
2017-Sep-21 09:48N 38°31' W 008°53'3 9.8
2017-Sep-21 09:30N 38°28' W 008°52'2 3.7
2017-Sep-21 09:00N 38°30' W 008°53'0 0.7
2017-Sep-21 08:29N 38°30' W 008°53'2 4.3
2017-Sep-21 08:00N 38°28' W 008°52'3 5.4
2017-Sep-21 07:27N 38°31' W 008°53'3 7.5
2017-Sep-21 07:00N 38°28' W 008°52'3 1.3
2017-Sep-21 04:28N 38°31' W 008°53'0 0.0
2017-Sep-21 04:00N 38°31' W 008°53'0 0.0
2017-Sep-21 03:28N 38°31' W 008°53'0 0.0
2017-Sep-21 03:00N 38°31' W 008°53'0 0.0
2017-Sep-21 02:30N 38°31' W 008°53'0 0.0
2017-Sep-21 02:01N 38°31' W 008°53'0 0.0
2017-Sep-21 01:30N 38°31' W 008°53'0 0.0
2017-Sep-21 01:00N 38°31' W 008°53'0 0.0
2017-Sep-21 00:30N 38°31' W 008°53'0 0.0
2017-Sep-21 00:00N 38°31' W 008°53'0 0.0
2017-Sep-20 23:29N 38°31' W 008°53'0 0.0
2017-Sep-20 23:01N 38°31' W 008°53'0 0.0
2017-Sep-20 22:31N 38°31' W 008°53'1 1.3
2017-Sep-20 22:00N 38°31' W 008°53'3 5.3
2017-Sep-20 21:29N 38°28' W 008°52'3 6.7
2017-Sep-20 20:59N 38°31' W 008°53'3 6.2
2017-Sep-20 20:27N 38°28' W 008°52'3 6.8
2017-Sep-20 20:01N 38°31' W 008°53'1 2.9
2017-Sep-20 19:30N 38°29' W 008°53'0 0.5
2017-Sep-20 19:00N 38°29' W 008°53'2 4.0
2017-Sep-20 18:30N 38°31' W 008°53'3 6.5
2017-Sep-20 18:00N 38°28' W 008°52'3 5.6
2017-Sep-20 17:24N 38°31' W 008°53'3 8.0
2017-Sep-20 16:59N 38°28' W 008°52'3 5.9
2017-Sep-20 16:30N 38°31' W 008°53'1 1.6
2017-Sep-20 16:00N 38°30' W 008°53'1 2.1
2017-Sep-20 15:30N 38°29' W 008°52'2 4.5
2017-Sep-20 15:00N 38°31' W 008°53'0 0.1
2017-Sep-20 13:55N 38°31' W 008°53'3 7.7
2017-Sep-20 13:29N 38°28' W 008°52'3 6.9
2017-Sep-20 13:00N 38°31' W 008°53'2 4.2
2017-Sep-20 12:30N 38°29' W 008°52'0 0.5
2017-Sep-20 12:00N 38°29' W 008°52'2 4.1
2017-Sep-20 11:31N 38°31' W 008°53'3 5.6
2017-Sep-20 10:58N 38°28' W 008°52'3 7.2
2017-Sep-20 10:30N 38°31' W 008°53'3 5.5
2017-Sep-20 09:53N 38°28' W 008°52'3 7.6
2017-Sep-20 09:29N 38°31' W 008°53'1 3.1
2017-Sep-20 09:01N 38°29' W 008°53'0 0.6
2017-Sep-20 08:30N 38°29' W 008°53'2 1.4
2017-Sep-20 06:56N 38°31' W 008°53'0 0.0
2017-Sep-20 06:26N 38°31' W 008°53'0 0.0
2017-Sep-20 05:56N 38°31' W 008°53'0 0.0
2017-Sep-20 03:44N 38°31' W 008°53'0 0.0
2017-Sep-20 00:08N 38°31' W 008°53'0 0.0
2017-Sep-19 21:59N 38°31' W 008°53'0 0.2
2017-Sep-19 21:25N 38°31' W 008°53'3 7.5
2017-Sep-19 20:59N 38°28' W 008°52'3 6.8
2017-Sep-19 20:29N 38°31' W 008°53'3 6.5
2017-Sep-19 20:00N 38°28' W 008°52'2 4.5
2017-Sep-19 19:30N 38°30' W 008°53'0 0.5
2017-Sep-19 19:00N 38°30' W 008°53'1 2.1
2017-Sep-19 18:30N 38°29' W 008°53'2 4.4
2017-Sep-19 18:00N 38°31' W 008°53'3 6.1
2017-Sep-19 17:27N 38°28' W 008°52'3 5.8
2017-Sep-19 16:53N 38°31' W 008°53'3 8.0
2017-Sep-19 16:31N 38°28' W 008°52'2 4.1
2017-Sep-19 15:59N 38°30' W 008°53'0 0.3
2017-Sep-19 15:30N 38°30' W 008°53'2 3.1
2017-Sep-19 15:00N 38°29' W 008°52'3 4.9
2017-Sep-19 14:29N 38°31' W 008°53'3 7.0
2017-Sep-19 14:00N 38°28' W 008°52'3 6.3
2017-Sep-19 13:28N 38°31' W 008°53'3 6.1
2017-Sep-19 13:00N 38°29' W 008°52'3 3.3
2017-Sep-19 12:09N 38°31' W 008°53'2 8.6
2017-Sep-19 11:55N 38°29' W 008°52'1 2.1
2017-Sep-19 11:31N 38°28' W 008°52'3 5.5
2017-Sep-19 10:58N 38°31' W 008°53'3 7.1
2017-Sep-19 10:30N 38°28' W 008°52'3 4.9
2017-Sep-19 09:49N 38°31' W 008°53'3 8.8
2017-Sep-19 09:30N 38°29' W 008°52'2 3.6
2017-Sep-19 09:00N 38°30' W 008°53'0 0.3
2017-Sep-19 08:29N 38°30' W 008°53'2 4.1
2017-Sep-19 08:00N 38°28' W 008°52'3 5.6
2017-Sep-19 07:28N 38°31' W 008°53'3 7.2
2017-Sep-19 06:59N 38°28' W 008°52'3 0.4
2017-Sep-18 22:06N 38°31' W 008°53'1 6.4
2017-Sep-18 22:00N 38°31' W 008°53'3 5.8
2017-Sep-18 21:30N 38°28' W 008°52'3 6.4
2017-Sep-18 20:59N 38°31' W 008°53'3 7.0
2017-Sep-18 20:30N 38°28' W 008°52'3 5.8
2017-Sep-18 19:55N 38°31' W 008°53'2 5.3
2017-Sep-18 19:30N 38°29' W 008°53'0 0.7
2017-Sep-18 19:00N 38°29' W 008°53'2 3.6
2017-Sep-18 18:30N 38°31' W 008°53'3 6.0
2017-Sep-18 18:00N 38°28' W 008°52'3 6.5
2017-Sep-18 17:30N 38°31' W 008°53'3 6.7
2017-Sep-18 17:00N 38°28' W 008°52'3 6.7
2017-Sep-18 16:30N 38°31' W 008°53'2 3.2
2017-Sep-18 16:00N 38°30' W 008°53'0 0.7
2017-Sep-18 15:30N 38°29' W 008°53'2 3.6
2017-Sep-18 15:00N 38°31' W 008°53'3 6.1
2017-Sep-18 14:30N 38°28' W 008°52'3 6.4
2017-Sep-18 14:00N 38°31' W 008°53'3 6.7
2017-Sep-18 13:30N 38°28' W 008°52'3 4.4
2017-Sep-18 12:44N 38°31' W 008°53'2 9.3
2017-Sep-18 12:28N 38°29' W 008°52'1 1.2
2017-Sep-18 11:59N 38°29' W 008°53'1 2.4
2017-Sep-18 11:29N 38°30' W 008°53'3 5.0
2017-Sep-18 10:58N 38°28' W 008°52'3 6.0
2017-Sep-18 10:25N 38°31' W 008°53'3 7.9
2017-Sep-18 09:59N 38°28' W 008°52'3 6.4
2017-Sep-18 09:30N 38°31' W 008°53'2 3.1
2017-Sep-18 09:00N 38°29' W 008°53'1 1.3
2017-Sep-18 08:30N 38°30' W 008°53'2 0.8
2017-Sep-18 06:37N 38°31' W 008°53'0 0.0
2017-Sep-18 05:43N 38°31' W 008°53'0 0.0
2017-Sep-18 05:19N 38°31' W 008°53'0 0.0
2017-Sep-18 03:19N 38°31' W 008°53'0 0.0
2017-Sep-18 02:55N 38°31' W 008°53'0 0.0
2017-Sep-18 02:25N 38°31' W 008°53'0 0.0
2017-Sep-18 01:55N 38°31' W 008°53'0 0.0
2017-Sep-18 01:19N 38°31' W 008°53'0 0.0
2017-Sep-18 00:55N 38°31' W 008°53'0 0.0
2017-Sep-18 00:25N 38°31' W 008°53'0 0.0
2017-Sep-17 23:55N 38°31' W 008°53'0 0.0
2017-Sep-17 23:25N 38°31' W 008°53'0 0.0
2017-Sep-17 22:43N 38°31' W 008°53'0 0.0
2017-Sep-17 22:19N 38°31' W 008°53'0 0.0
2017-Sep-17 21:55N 38°31' W 008°53'0 0.0
2017-Sep-17 21:30N 38°31' W 008°53'3 6.9
2017-Sep-17 21:00N 38°28' W 008°52'3 6.5
2017-Sep-17 20:29N 38°31' W 008°53'3 6.3
2017-Sep-17 20:00N 38°28' W 008°52'2 4.8
2017-Sep-17 19:30N 38°30' W 008°54'1 1.6
2017-Sep-17 19:00N 38°30' W 008°53'1 2.0
2017-Sep-17 18:30N 38°29' W 008°52'2 4.9
2017-Sep-17 18:00N 38°31' W 008°53'3 6.5
2017-Sep-17 17:30N 38°28' W 008°52'3 6.8
2017-Sep-17 17:00N 38°31' W 008°53'3 5.8
2017-Sep-17 16:30N 38°28' W 008°52'2 3.1
2017-Sep-17 16:00N 38°30' W 008°53'0 0.4
2017-Sep-17 15:29N 38°30' W 008°53'1 2.8
2017-Sep-17 15:00N 38°29' W 008°52'3 5.0
2017-Sep-17 14:30N 38°31' W 008°53'3 6.6
2017-Sep-17 14:00N 38°28' W 008°52'3 6.9
2017-Sep-17 13:30N 38°31' W 008°53'3 5.1
2017-Sep-17 13:00N 38°29' W 008°52'2 3.4
2017-Sep-17 12:30N 38°30' W 008°53'0 0.7
2017-Sep-17 12:00N 38°30' W 008°53'2 3.9
2017-Sep-17 11:30N 38°28' W 008°52'3 6.3
2017-Sep-17 11:00N 38°31' W 008°53'3 6.4
2017-Sep-17 10:29N 38°28' W 008°52'3 6.8
2017-Sep-17 09:59N 38°31' W 008°53'3 5.9
2017-Sep-17 09:30N 38°29' W 008°52'2 3.3
2017-Sep-17 09:00N 38°30' W 008°53'0 0.2
2017-Sep-17 08:30N 38°30' W 008°53'2 3.6
2017-Sep-17 07:58N 38°28' W 008°52'3 6.5
2017-Sep-17 07:29N 38°31' W 008°53'3 6.8
2017-Sep-17 07:00N 38°28' W 008°52'3 6.8
2017-Sep-17 06:30N 38°31' W 008°53'0 0.0
2017-Sep-17 03:10N 38°31' W 008°53'0 0.0
2017-Sep-16 23:15N 38°31' W 008°53'2 8.6
2017-Sep-16 22:59N 38°29' W 008°52'1 1.8
2017-Sep-16 22:30N 38°30' W 008°53'0 0.7
2017-Sep-16 22:00N 38°30' W 008°53'2 4.6
2017-Sep-16 21:30N 38°28' W 008°52'3 6.1
2017-Sep-16 20:57N 38°31' W 008°53'3 7.4
2017-Sep-16 20:30N 38°28' W 008°52'3 6.5
2017-Sep-16 20:00N 38°31' W 008°53'2 4.0
2017-Sep-16 19:30N 38°29' W 008°53'1 1.1
2017-Sep-16 19:00N 38°29' W 008°53'1 2.2
2017-Sep-16 18:30N 38°31' W 008°53'3 5.5
2017-Sep-16 18:00N 38°28' W 008°52'3 6.8
2017-Sep-16 17:30N 38°31' W 008°53'3 6.6
2017-Sep-16 17:00N 38°28' W 008°52'3 6.1
2017-Sep-16 16:30N 38°31' W 008°53'1 3.0
2017-Sep-16 16:00N 38°29' W 008°53'0 0.5
2017-Sep-16 15:30N 38°29' W 008°53'2 4.1
2017-Sep-16 15:00N 38°31' W 008°53'3 6.5
2017-Sep-16 14:30N 38°28' W 008°52'3 6.7
2017-Sep-16 14:00N 38°31' W 008°53'3 6.6
2017-Sep-16 13:30N 38°28' W 008°52'3 6.1
2017-Sep-16 13:00N 38°31' W 008°53'2 4.0
2017-Sep-16 12:30N 38°29' W 008°52'1 1.9
2017-Sep-16 12:00N 38°29' W 008°53'2 3.2
2017-Sep-16 11:31N 38°31' W 008°53'3 5.8
2017-Sep-16 10:58N 38°28' W 008°52'3 6.0
2017-Sep-16 10:24N 38°31' W 008°53'3 8.3
2017-Sep-16 10:00N 38°28' W 008°52'3 6.3
2017-Sep-16 09:30N 38°31' W 008°53'2 4.3
2017-Sep-16 09:00N 38°29' W 008°52'1 1.0
2017-Sep-16 08:30N 38°29' W 008°53'2 2.4
2017-Sep-16 07:37N 38°31' W 008°53'0 0.0
2017-Sep-16 07:19N 38°31' W 008°53'0 0.0
2017-Sep-16 06:55N 38°31' W 008°53'0 0.0
2017-Sep-16 06:25N 38°31' W 008°53'0 0.0
2017-Sep-16 05:55N 38°31' W 008°53'0 0.0
2017-Sep-16 05:25N 38°31' W 008°53'0 0.0
2017-Sep-16 04:49N 38°31' W 008°53'0 0.0
2017-Sep-16 04:19N 38°31' W 008°53'0 0.0
2017-Sep-16 03:37N 38°31' W 008°53'0 0.0
2017-Sep-16 03:25N 38°31' W 008°53'0 0.0
2017-Sep-16 02:55N 38°31' W 008°53'0 0.0
2017-Sep-16 02:19N 38°31' W 008°53'0 0.0
2017-Sep-16 01:55N 38°31' W 008°53'0 0.0
2017-Sep-16 01:07N 38°31' W 008°53'0 0.0
2017-Sep-16 00:37N 38°31' W 008°53'0 0.0
2017-Sep-16 00:07N 38°31' W 008°53'0 0.0
2017-Sep-15 23:43N 38°31' W 008°53'0 0.0
2017-Sep-15 21:38N 38°31' W 008°53'0 2.4
2017-Sep-15 21:30N 38°31' W 008°53'3 6.2
2017-Sep-15 21:00N 38°28' W 008°52'3 5.6
2017-Sep-15 20:25N 38°31' W 008°53'3 7.4
2017-Sep-15 20:00N 38°28' W 008°52'2 4.6
2017-Sep-15 19:30N 38°30' W 008°53'1 1.5
2017-Sep-15 19:00N 38°30' W 008°53'1 1.7
2017-Sep-15 18:30N 38°29' W 008°52'2 4.8
2017-Sep-15 18:00N 38°31' W 008°53'3 6.2
2017-Sep-15 17:28N 38°28' W 008°52'3 6.0
2017-Sep-15 16:55N 38°31' W 008°53'3 7.2
2017-Sep-15 16:30N 38°28' W 008°52'2 4.4
2017-Sep-15 16:00N 38°30' W 008°53'0 0.8
2017-Sep-15 15:30N 38°30' W 008°53'2 3.7
2017-Sep-15 15:00N 38°28' W 008°52'3 5.8
2017-Sep-15 14:30N 38°31' W 008°53'3 6.7
2017-Sep-15 14:00N 38°28' W 008°52'3 6.3
2017-Sep-15 13:30N 38°31' W 008°53'2 4.4
2017-Sep-15 13:00N 38°29' W 008°52'1 1.9
2017-Sep-15 12:30N 38°30' W 008°53'1 1.7
2017-Sep-15 12:00N 38°30' W 008°53'2 4.4
2017-Sep-15 11:30N 38°28' W 008°52'3 5.9
2017-Sep-15 11:00N 38°31' W 008°53'3 6.9
2017-Sep-15 10:30N 38°28' W 008°52'3 4.9
2017-Sep-15 09:49N 38°31' W 008°53'3 8.6
2017-Sep-15 09:30N 38°29' W 008°52'1 2.7
2017-Sep-15 09:00N 38°30' W 008°53'0 0.6
2017-Sep-15 08:30N 38°30' W 008°53'2 3.9
2017-Sep-15 07:59N 38°28' W 008°52'3 6.2
2017-Sep-15 07:29N 38°31' W 008°53'3 6.6
2017-Sep-15 06:59N 38°28' W 008°52'3 0.4
2017-Sep-14 23:11N 38°31' W 008°53'210.6
2017-Sep-14 23:00N 38°29' W 008°53'0 0.3
2017-Sep-14 22:30N 38°29' W 008°53'1 1.6
2017-Sep-14 21:59N 38°30' W 008°53'2 4.7
2017-Sep-14 21:30N 38°28' W 008°52'3 6.2
2017-Sep-14 20:58N 38°31' W 008°53'3 7.3
2017-Sep-14 20:30N 38°28' W 008°52'3 6.3
2017-Sep-14 20:00N 38°31' W 008°53'2 4.3
2017-Sep-14 19:30N 38°29' W 008°52'1 1.1
2017-Sep-14 19:00N 38°29' W 008°53'1 2.6
2017-Sep-14 18:30N 38°31' W 008°53'3 5.4
2017-Sep-14 18:00N 38°28' W 008°52'3 6.9
2017-Sep-14 17:30N 38°31' W 008°53'3 6.7
2017-Sep-14 17:00N 38°28' W 008°52'3 6.7
2017-Sep-14 16:30N 38°31' W 008°53'2 3.4
2017-Sep-14 16:00N 38°30' W 008°53'1 1.4
2017-Sep-14 15:30N 38°29' W 008°52'2 4.9
2017-Sep-14 15:00N 38°31' W 008°53'3 5.9
2017-Sep-14 14:27N 38°28' W 008°52'3 7.0
2017-Sep-14 13:58N 38°31' W 008°53'3 6.7
2017-Sep-14 13:28N 38°28' W 008°52'3 6.8
2017-Sep-14 12:59N 38°31' W 008°53'3 5.5
2017-Sep-14 12:24N 38°28' W 008°52'2 3.9
2017-Sep-14 12:00N 38°29' W 008°53'2 3.6
2017-Sep-14 11:30N 38°31' W 008°53'3 6.3
2017-Sep-14 11:00N 38°28' W 008°52'3 5.2
2017-Sep-14 10:22N 38°31' W 008°53'3 9.0
2017-Sep-14 10:00N 38°28' W 008°52'3 5.9
2017-Sep-14 09:30N 38°31' W 008°53'2 3.0
2017-Sep-14 09:00N 38°29' W 008°53'0 0.6
2017-Sep-14 08:30N 38°30' W 008°53'2 2.7
2017-Sep-14 07:52N 38°31' W 008°53'0 0.0
2017-Sep-14 03:07N 38°31' W 008°53'0 0.1
2017-Sep-14 02:49N 38°31' W 008°53'0 0.0
2017-Sep-14 02:25N 38°31' W 008°53'0 0.0
2017-Sep-14 01:55N 38°31' W 008°53'0 0.0
2017-Sep-14 01:07N 38°31' W 008°53'0 0.0
2017-Sep-14 00:55N 38°31' W 008°53'0 0.0
2017-Sep-14 00:19N 38°31' W 008°53'0 0.0
2017-Sep-13 23:55N 38°31' W 008°53'0 0.0
2017-Sep-13 23:25N 38°31' W 008°53'0 0.0
2017-Sep-13 22:58N 38°31' W 008°53'0 0.0
2017-Sep-13 22:01N 38°31' W 008°53'0 0.0
2017-Sep-13 21:49N 38°31' W 008°53'0 0.1
2017-Sep-13 21:27N 38°31' W 008°53'3 7.1
2017-Sep-13 20:59N 38°28' W 008°52'3 6.7
2017-Sep-13 20:29N 38°31' W 008°53'3 5.9
2017-Sep-13 20:00N 38°29' W 008°52'2 4.0
2017-Sep-13 19:30N 38°30' W 008°53'1 1.3
2017-Sep-13 19:00N 38°30' W 008°53'2 3.6
2017-Sep-13 18:30N 38°28' W 008°52'3 6.5
2017-Sep-13 18:00N 38°31' W 008°53'3 6.7
2017-Sep-13 17:30N 38°28' W 008°52'3 6.8
2017-Sep-13 17:00N 38°31' W 008°53'3 5.3
2017-Sep-13 16:30N 38°29' W 008°52'2 3.3
2017-Sep-13 15:59N 38°30' W 008°53'0 0.3
2017-Sep-13 15:30N 38°30' W 008°53'2 4.5
2017-Sep-13 15:00N 38°28' W 008°52'3 6.3
2017-Sep-13 14:30N 38°31' W 008°53'3 6.7
2017-Sep-13 14:00N 38°28' W 008°52'3 6.7
2017-Sep-13 13:30N 38°31' W 008°53'3 5.5
2017-Sep-13 13:00N 38°29' W 008°52'1 2.8
2017-Sep-13 12:30N 38°30' W 008°53'1 1.4
2017-Sep-13 12:00N 38°30' W 008°53'2 4.8
2017-Sep-13 11:30N 38°28' W 008°52'3 5.4
2017-Sep-13 10:56N 38°31' W 008°53'3 7.8
2017-Sep-13 10:30N 38°28' W 008°52'3 6.6
2017-Sep-13 10:00N 38°31' W 008°53'3 5.6
2017-Sep-13 09:30N 38°29' W 008°52'1 2.9
2017-Sep-13 09:00N 38°30' W 008°53'1 1.2
2017-Sep-13 08:30N 38°30' W 008°53'2 2.9
2017-Sep-13 07:56N 38°29' W 008°52'2 5.1
2017-Sep-13 07:28N 38°31' W 008°53'3 6.9
2017-Sep-13 06:59N 38°28' W 008°52'3 7.1
2017-Sep-13 06:30N 38°31' W 008°53'0 0.0
2017-Sep-13 01:46N 38°31' W 008°53'0 0.0
2017-Sep-13 01:19N 38°31' W 008°53'0 0.0
2017-Sep-12 23:17N 38°31' W 008°53'2 8.0
2017-Sep-12 23:00N 38°29' W 008°52'1 1.4
2017-Sep-12 22:30N 38°29' W 008°53'2 3.5
2017-Sep-12 22:00N 38°31' W 008°53'3 6.3
2017-Sep-12 21:29N 38°28' W 008°52'3 6.4
2017-Sep-12 20:59N 38°31' W 008°53'3 7.2
2017-Sep-12 20:30N 38°28' W 008°52'3 6.7
2017-Sep-12 20:00N 38°31' W 008°53'3 5.2
2017-Sep-12 19:31N 38°29' W 008°52'0 0.4
2017-Sep-12 19:00N 38°29' W 008°52'2 4.9
2017-Sep-12 18:30N 38°31' W 008°53'3 6.1
2017-Sep-12 18:01N 38°28' W 008°52'3 6.7
2017-Sep-12 17:30N 38°31' W 008°53'3 6.7
2017-Sep-12 17:00N 38°28' W 008°52'3 6.7
2017-Sep-12 16:30N 38°31' W 008°53'2 3.9
2017-Sep-12 16:00N 38°29' W 008°53'0 0.9
2017-Sep-12 15:30N 38°29' W 008°52'2 3.8
2017-Sep-12 15:00N 38°31' W 008°53'3 5.4
2017-Sep-12 14:29N 38°28' W 008°52'3 7.0
2017-Sep-12 14:00N 38°31' W 008°53'3 6.5
2017-Sep-12 13:29N 38°28' W 008°52'3 5.8
2017-Sep-12 13:00N 38°31' W 008°53'1 2.1
2017-Sep-12 12:30N 38°30' W 008°53'0 0.8
2017-Sep-12 12:00N 38°29' W 008°53'2 3.3
2017-Sep-12 11:30N 38°31' W 008°53'3 5.3
2017-Sep-12 10:58N 38°28' W 008°52'3 5.3
2017-Sep-12 10:22N 38°31' W 008°53'3 9.2
2017-Sep-12 10:00N 38°28' W 008°52'3 6.0
2017-Sep-12 09:28N 38°31' W 008°53'2 3.6
2017-Sep-12 09:00N 38°30' W 008°53'0 0.2
2017-Sep-12 08:30N 38°29' W 008°53'2 3.6
2017-Sep-12 07:59N 38°31' W 008°53'0 0.0
2017-Sep-12 07:25N 38°31' W 008°53'0 0.0
2017-Sep-12 06:55N 38°31' W 008°53'0 0.0
2017-Sep-12 06:19N 38°31' W 008°53'0 0.0
2017-Sep-12 05:55N 38°31' W 008°53'0 0.0
2017-Sep-12 05:01N 38°31' W 008°53'0 0.0
2017-Sep-12 04:43N 38°31' W 008°53'0 0.0
2017-Sep-12 04:25N 38°31' W 008°53'0 0.0
2017-Sep-12 03:58N 38°31' W 008°53'0 0.0
2017-Sep-12 03:28N 38°31' W 008°53'0 0.0
2017-Sep-12 02:58N 38°31' W 008°53'0 0.0
2017-Sep-12 02:16N 38°31' W 008°53'  

Dump ship's entire track history